KHQI

High Island 376

High Island 376, Texas, USA
METAR KHQI 151335Z AUTO 01023KT 7SM BKN021 BKN028 OVC095 15/11 A3012 RMK A01
Observed Flight Rules
Dec-15 @ 13:35 UTC (35 minutes ago) Marginal Visual Flight Rules
Wind Visibility Clouds
10° at 23 knots 7 miles
  • Broken at 2,100' AGL
  • Broken at 2,800' AGL
  • Overcast at 9,500' AGL
Temperatures Readings
Current 15°C / 59°F
Dewpoint 11°C / 52°F
Humidity 77%
Altimeter 30.12" Hg
Pressure 1020 hPa
Elevation 26
METAR KHQI 151335Z AUTO 01023KT 7SM BKN021 BKN028 OVC095 15/11 A3012 RMK A01
Observed Flight Rules
Dec-15 @ 13:35 UTC
(35 minutes ago)
MVFR
Wind Visibility
10° at 23 knots 7 miles
Clouds
  • Broken at 2,100' AGL
  • Broken at 2,800' AGL
  • Overcast at 9,500' AGL
Temperature Dewpoint
15°C / 59°F 11°C / 52°F
Humidity Altimeter Pressure
77% 30.12" Hg 1020 hPa